^^
Saratoga-Weather Station Historical Data
Daily Summary for May 4, 2021 Units:  Metric    English   Both
Daily Weekly Monthly Yearly Custom
  High: Low: Average:
Temperature: 28.2 °C 16.2 °C 20.3 °C
Dew Point: 19.9 °C 14.7 °C 17.2 °C
Humidity: 98% 54% 85%
Wind Speed: 24.1km/h 0km/h 2.2km/h
Wind Gust: 32.2km/h - -
Wind- - South
Pressure: 1019.6 hPa 1015.9 hPa -
Precipitation: 1.5 mm    
Historical Graphs
 
 
Tabular Data for May 4, 2021
Time Temperature Dew Point Pressure Wind Wind Speed Wind Gust Humidity Rainfall Rate (Hourly) solar
00:04 17.7 °C 17.1 °C 1019.3 hPa Calm     96% 0.0 mm 0 W/m2
00:09 17.6 °C 17 °C 1019.3 hPa Calm     96% 0.0 mm 0 W/m2
00:14 17.5 °C 16.7 °C 1019.3 hPa Calm     95% 0.0 mm 0 W/m2
00:19 17.4 °C 16.8 °C 1019.3 hPa Calm     96% 0.0 mm 0 W/m2
00:24 17.3 °C 16.7 °C 1019.3 hPa Calm     96% 0.0 mm 0 W/m2
00:29 17.3 °C 16.7 °C 1019.3 hPa Calm     96% 0.0 mm 0 W/m2
00:34 17.3 °C 16.7 °C 1019.3 hPa Calm   3.2 km/h 96% 0.0 mm 0 W/m2
00:39 17.4 °C 16.8 °C 1019.3 hPa Calm     96% 0.0 mm 0 W/m2
00:44 17.4 °C 16.8 °C 1019.3 hPa Calm   3.2 km/h 96% 0.0 mm 0 W/m2
00:49 17.4 °C 16.8 °C 1019.0 hPa Calm     96% 0.0 mm 0 W/m2
00:54 17.3 °C 16.7 °C 1019.0 hPa Calm     96% 0.0 mm 0 W/m2
00:59 17.3 °C 16.7 °C 1019.0 hPa Calm     96% 0.0 mm 0 W/m2
01:05 17.2 °C 16.6 °C 1019.0 hPa Calm     96% 0.0 mm 0 W/m2
01:10 17.2 °C 16.6 °C 1019.0 hPa Calm     96% 0.0 mm 0 W/m2
01:15 17.2 °C 16.6 °C 1019.0 hPa Calm     96% 0.0 mm 0 W/m2
01:20 17.2 °C 16.6 °C 1019.0 hPa Calm     96% 0.0 mm 0 W/m2
01:25 17.1 °C 16.5 °C 1019.0 hPa Calm     96% 0.0 mm 0 W/m2
01:30 17 °C 16.4 °C 1019.0 hPa Calm     96% 0.0 mm 0 W/m2
01:35 16.9 °C 16.3 °C 1019.0 hPa Calm     96% 0.0 mm 0 W/m2
01:40 16.8 °C 16.2 °C 1019.0 hPa Calm     96% 0.0 mm 0 W/m2
01:45 16.8 °C 16.2 °C 1019.0 hPa Calm     96% 0.0 mm 0 W/m2
01:50 16.7 °C 16.1 °C 1019.0 hPa Calm     96% 0.0 mm 0 W/m2
01:55 16.8 °C 16.2 °C 1019.0 hPa Calm     96% 0.0 mm 0 W/m2
02:00 16.7 °C 16.1 °C 1019.0 hPa Calm     96% 0.0 mm 0 W/m2
02:05 16.7 °C 16.1 °C 1019.0 hPa Calm     96% 0.0 mm 0 W/m2
02:10 16.7 °C 16.1 °C 1019.0 hPa Calm     96% 0.0 mm 0 W/m2
02:15 16.7 °C 16.1 °C 1019.0 hPa Calm     96% 0.0 mm 0 W/m2
02:20 16.7 °C 16.1 °C 1019.0 hPa Calm     96% 0.0 mm 0 W/m2
02:25 16.6 °C 16 °C 1019.0 hPa Calm     96% 0.0 mm 0 W/m2
02:30 16.6 °C 16.1 °C 1019.0 hPa Calm     97% 0.0 mm 0 W/m2
02:35 16.6 °C 16.1 °C 1019.0 hPa Calm     97% 0.0 mm 0 W/m2
02:41 16.6 °C 16.1 °C 1019.0 hPa Calm     97% 0.0 mm 0 W/m2
02:46 16.6 °C 16.1 °C 1019.0 hPa Calm     97% 0.0 mm 0 W/m2
02:51 16.6 °C 16.1 °C 1019.0 hPa Calm     97% 0.0 mm 0 W/m2
02:56 16.6 °C 16.1 °C 1019.0 hPa WSW 3.2 km/h 3.2 km/h 97% 0.0 mm 0 W/m2
03:01 16.5 °C 15.9 °C 1019.0 hPa Calm     96% 0.0 mm 0 W/m2
03:06 16.4 °C 15.8 °C 1019.0 hPa Calm     96% 0.0 mm 0 W/m2
03:11 16.4 °C 15.8 °C 1018.6 hPa Calm     96% 0.0 mm 0 W/m2
03:16 16.3 °C 15.7 °C 1018.6 hPa Calm     96% 0.0 mm 0 W/m2
03:21 16.2 °C 15.7 °C 1019.0 hPa Calm     97% 0.0 mm 0 W/m2
03:26 16.3 °C 15.8 °C 1019.0 hPa Calm     97% 0.0 mm 0 W/m2
03:31 16.2 °C 15.7 °C 1019.0 hPa Calm     97% 0.0 mm 0 W/m2
03:36 16.2 °C 15.7 °C 1018.6 hPa Calm     97% 0.0 mm 0 W/m2
03:41 16.2 °C 15.7 °C 1019.0 hPa Calm     97% 0.0 mm 0 W/m2
03:46 16.3 °C 15.8 °C 1019.0 hPa Calm     97% 0.0 mm 0 W/m2
03:51 16.3 °C 15.8 °C 1019.0 hPa Calm     97% 0.0 mm 0 W/m2
03:56 16.3 °C 15.8 °C 1019.0 hPa Calm     97% 0.0 mm 0 W/m2
04:01 16.4 °C 15.9 °C 1019.0 hPa Calm     97% 0.0 mm 0 W/m2
04:06 16.4 °C 15.9 °C 1019.0 hPa Calm     97% 0.0 mm 0 W/m2
04:11 16.4 °C 15.9 °C 1019.0 hPa Calm     97% 0.0 mm 0 W/m2
04:16 16.6 °C 16.1 °C 1019.0 hPa Calm     97% 0.0 mm 0 W/m2
04:21 16.7 °C 16.2 °C 1019.0 hPa WSW 1.4 km/h 3.2 km/h 97% 0.0 mm 0 W/m2
04:26 16.8 °C 16.3 °C 1019.0 hPa Calm   3.2 km/h 97% 0.0 mm 0 W/m2
04:31 16.7 °C 16.2 °C 1019.0 hPa WSW 1.4 km/h 3.2 km/h 97% 0.0 mm 0 W/m2
04:36 16.6 °C 16.1 °C 1019.0 hPa Calm     97% 0.0 mm 0 W/m2
04:41 16.5 °C 16 °C 1019.0 hPa Calm   3.2 km/h 97% 0.0 mm 0 W/m2
04:46 16.5 °C 16 °C 1019.0 hPa Calm     97% 0.0 mm 0 W/m2
04:51 16.4 °C 15.9 °C 1019.0 hPa Calm     97% 0.0 mm 0 W/m2
04:56 16.4 °C 15.9 °C 1019.0 hPa Calm     97% 0.0 mm 0 W/m2
05:01 16.4 °C 15.9 °C 1019.0 hPa Calm     97% 0.0 mm 0 W/m2
05:06 16.4 °C 15.9 °C 1019.0 hPa Calm     97% 0.0 mm 0 W/m2
05:11 16.4 °C 15.9 °C 1019.0 hPa Calm     97% 0.0 mm 0 W/m2
05:16 16.4 °C 15.9 °C 1019.0 hPa Calm     97% 0.0 mm 0 W/m2
05:21 16.5 °C 16 °C 1019.0 hPa Calm     97% 0.0 mm 0 W/m2
05:26 16.6 °C 16.1 °C 1019.0 hPa Calm     97% 0.0 mm 0 W/m2
05:31 16.7 °C 16.2 °C 1019.0 hPa Calm     97% 0.0 mm 0 W/m2
05:36 16.7 °C 16.2 °C 1019.0 hPa Calm     97% 0.0 mm 5 W/m2
05:41 16.7 °C 16.2 °C 1019.0 hPa Calm     97% 0.0 mm 7 W/m2
05:46 16.7 °C 16.2 °C 1019.0 hPa Calm     97% 0.0 mm 14 W/m2
05:51 16.6 °C 16.1 °C 1019.3 hPa Calm     97% 0.0 mm 14 W/m2
05:56 16.6 °C 16.1 °C 1019.3 hPa Calm     97% 0.0 mm 11 W/m2
06:01 16.7 °C 16.2 °C 1019.3 hPa Calm     97% 0.0 mm 12 W/m2
06:06 16.7 °C 16.2 °C 1019.0 hPa Calm     97% 0.0 mm 14 W/m2
06:11 16.7 °C 16.2 °C 1019.3 hPa Calm     97% 0.0 mm 18 W/m2
06:16 16.7 °C 16.2 °C 1019.3 hPa Calm     97% 0.0 mm 21 W/m2
06:21 16.7 °C 16.2 °C 1019.3 hPa Calm     97% 0.0 mm 21 W/m2
06:26 16.7 °C 16.2 °C 1019.3 hPa Calm     97% 0.0 mm 26 W/m2
06:31 16.7 °C 16.2 °C 1019.3 hPa Calm     97% 0.0 mm 30 W/m2
06:36 16.7 °C 16.2 °C 1019.3 hPa Calm     97% 0.0 mm 32 W/m2
06:42 16.7 °C 16.2 °C 1019.3 hPa Calm     97% 0.0 mm 35 W/m2
06:47 16.7 °C 16.2 °C 1019.3 hPa Calm     97% 0.0 mm 35 W/m2
06:52 16.7 °C 16.2 °C 1019.3 hPa Calm     97% 0.0 mm 42 W/m2
06:57 16.8 °C 16.3 °C 1019.3 hPa Calm     97% 0.0 mm 54 W/m2
07:02 16.8 °C 16.3 °C 1019.3 hPa Calm     97% 0.0 mm 58 W/m2
07:07 16.8 °C 16.3 °C 1019.3 hPa Calm     97% 0.0 mm 70 W/m2
07:12 16.8 °C 16.3 °C 1019.3 hPa Calm     97% 0.0 mm 86 W/m2
07:17 16.9 °C 16.4 °C 1019.3 hPa Calm     97% 0.0 mm 86 W/m2
07:22 16.9 °C 16.4 °C 1019.3 hPa Calm     97% 0.0 mm 81 W/m2
07:27 17 °C 16.5 °C 1019.3 hPa Calm     97% 0.0 mm 97 W/m2
07:32 17.1 °C 16.8 °C 1019.3 hPa Calm     98% 0.0 mm 98 W/m2
07:37 17.1 °C 16.8 °C 1019.3 hPa NNW 1.4 km/h 3.2 km/h 98% 0.0 mm 111 W/m2
07:42 17.1 °C 16.8 °C 1019.3 hPa Calm     98% 0.0 mm 114 W/m2
07:47 17.1 °C 16.8 °C 1019.3 hPa NE 3.2 km/h 3.2 km/h 98% 0.0 mm 160 W/m2
07:52 17.1 °C 16.8 °C 1019.3 hPa NE 1.4 km/h 3.2 km/h 98% 0.0 mm 120 W/m2
07:57 17.1 °C 16.6 °C 1019.3 hPa Calm     97% 0.0 mm 179 W/m2
08:02 17.2 °C 16.9 °C 1019.3 hPa ENE 1.4 km/h 3.2 km/h 98% 0.0 mm 162 W/m2
08:07 17.2 °C 16.7 °C 1019.3 hPa ENE 1.4 km/h 1.6 km/h 97% 0.0 mm 125 W/m2
08:12 17.3 °C 16.8 °C 1019.3 hPa Calm   3.2 km/h 97% 0.0 mm 188 W/m2
08:17 17.4 °C 17.1 °C 1019.3 hPa Calm   1.6 km/h 98% 0.0 mm 114 W/m2
08:22 17.5 °C 17.2 °C 1019.3 hPa NE 3.2 km/h 4.8 km/h 98% 0.0 mm 118 W/m2
08:27 17.6 °C 17.3 °C 1019.3 hPa East 1.4 km/h 3.2 km/h 98% 0.0 mm 199 W/m2
08:32 17.6 °C 17.3 °C 1019.6 hPa North 1.4 km/h 6.4 km/h 98% 0.0 mm 162 W/m2
08:37 17.7 °C 17.4 °C 1019.6 hPa East 3.2 km/h 6.4 km/h 98% 0.0 mm 169 W/m2
08:42 17.8 °C 17.5 °C 1019.6 hPa East 1.4 km/h 3.2 km/h 98% 0.0 mm 178 W/m2
08:47 17.9 °C 17.6 °C 1019.6 hPa East 3.2 km/h 6.4 km/h 98% 0.0 mm 148 W/m2
08:52 18.2 °C 17.7 °C 1019.3 hPa Calm   4.8 km/h 97% 0.0 mm 98 W/m2
08:57 18.4 °C 17.9 °C 1019.3 hPa Calm   3.2 km/h 97% 0.0 mm 114 W/m2
09:02 18.6 °C 18.1 °C 1019.3 hPa NE 1.4 km/h 3.2 km/h 97% 0.0 mm 160 W/m2
09:07 18.8 °C 18.3 °C 1019.3 hPa East 1.4 km/h 3.2 km/h 97% 0.0 mm 311 W/m2
09:12 19.2 °C 18.5 °C 1019.6 hPa ESE 1.4 km/h 4.8 km/h 96% 0.0 mm 418 W/m2
09:17 19.4 °C 18.6 °C 1019.6 hPa Calm   1.6 km/h 95% 0.0 mm 462 W/m2
09:22 19.8 °C 18.8 °C 1019.6 hPa ESE 1.4 km/h 6.4 km/h 94% 0.0 mm 468 W/m2
09:27 20.2 °C 18.9 °C 1019.6 hPa ESE 1.4 km/h 4.8 km/h 92% 0.0 mm 443 W/m2
09:32 20.5 °C 19 °C 1019.6 hPa East 3.2 km/h 6.4 km/h 91% 0.0 mm 424 W/m2
09:37 20.7 °C 18.8 °C 1019.6 hPa NE 4.7 km/h 4.8 km/h 89% 0.0 mm 485 W/m2
09:42 20.9 °C 18.8 °C 1019.6 hPa WSW 4.7 km/h 4.8 km/h 88% 0.0 mm 536 W/m2
09:47 21.2 °C 18.9 °C 1019.6 hPa West 1.4 km/h 6.4 km/h 87% 0.0 mm 548 W/m2
09:52 21.4 °C 18.8 °C 1019.6 hPa East 4.7 km/h 9.7 km/h 85% 0.0 mm 540 W/m2
09:57 21.7 °C 19.1 °C 1019.6 hPa North 1.4 km/h 4.8 km/h 85% 0.0 mm 573 W/m2
10:02 21.8 °C 18.6 °C 1019.6 hPa NE 1.4 km/h 3.2 km/h 82% 0.0 mm 90 W/m2
10:07 22 °C 18.8 °C 1019.6 hPa ESE 1.4 km/h 3.2 km/h 82% 0.0 mm 97 W/m2
10:12 22.2 °C 18.6 °C 1019.6 hPa Calm   4.8 km/h 80% 0.0 mm 580 W/m2
10:17 22.4 °C 19.2 °C 1019.6 hPa NE 3.2 km/h 6.4 km/h 82% 0.0 mm 617 W/m2
10:22 22.6 °C 18.8 °C 1019.3 hPa Calm   4.8 km/h 79% 0.0 mm 622 W/m2
10:27 22.8 °C 19 °C 1019.3 hPa ESE 1.4 km/h 6.4 km/h 79% 0.0 mm 633 W/m2
10:32 23 °C 19.2 °C 1019.3 hPa NE 12.9 km/h 12.9 km/h 79% 0.0 mm 649 W/m2
10:37 23.1 °C 18.8 °C 1019.3 hPa ENE 1.4 km/h 6.4 km/h 77% 0.0 mm 661 W/m2
10:42 23.1 °C 19.3 °C 1019.3 hPa East 11.3 km/h 11.3 km/h 79% 0.0 mm 679 W/m2
10:47 23.3 °C 19.5 °C 1019.3 hPa East 1.4 km/h 11.3 km/h 79% 0.0 mm 689 W/m2
10:52 23.6 °C 19.1 °C 1019.3 hPa East 1.4 km/h 6.4 km/h 76% 0.0 mm 700 W/m2
10:57 23.8 °C 19.3 °C 1019.3 hPa ENE 4.7 km/h 9.7 km/h 76% 0.0 mm 708 W/m2
11:02 23.9 °C 19.4 °C 1019.3 hPa Calm   3.2 km/h 76% 0.0 mm 714 W/m2
11:07 24.2 °C 19.5 °C 1019.3 hPa SE 6.4 km/h 11.3 km/h 75% 0.0 mm 728 W/m2
11:12 24.3 °C 19.4 °C 1019.3 hPa NE 3.2 km/h 6.4 km/h 74% 0.0 mm 737 W/m2
11:17 24.4 °C 19.5 °C 1019.3 hPa SE 1.4 km/h 11.3 km/h 74% 0.0 mm 745 W/m2
11:22 24.3 °C 19.4 °C 1019.3 hPa ESE 6.4 km/h 6.4 km/h 74% 0.0 mm 749 W/m2
11:27 24.6 °C 19.9 °C 1019.0 hPa Calm   4.8 km/h 75% 0.0 mm 768 W/m2
11:32 24.8 °C 19.6 °C 1019.0 hPa South 1.4 km/h 9.7 km/h 73% 0.0 mm 777 W/m2
11:37 24.9 °C 19.3 °C 1019.0 hPa ESE 4.7 km/h 6.4 km/h 71% 0.0 mm 786 W/m2
11:42 25 °C 19.6 °C 1019.0 hPa SW 3.2 km/h 3.2 km/h 72% 0.0 mm 795 W/m2
11:47 25.1 °C 19.2 °C 1019.0 hPa SE 6.4 km/h 9.7 km/h 70% 0.0 mm 803 W/m2
11:52 25.3 °C 19.2 °C 1019.0 hPa ENE 3.2 km/h 3.2 km/h 69% 0.0 mm 803 W/m2
11:57 25.4 °C 19.5 °C 1019.0 hPa ESE 1.4 km/h 1.6 km/h 70% 0.0 mm 812 W/m2
12:02 25.7 °C 19.6 °C 1019.0 hPa SSE 4.7 km/h 9.7 km/h 69% 0.0 mm 824 W/m2
12:07 25.7 °C 19.3 °C 1019.0 hPa ESE 3.2 km/h 4.8 km/h 68% 0.0 mm 830 W/m2
12:12 25.8 °C 19.2 °C 1019.0 hPa North 3.2 km/h 8 km/h 67% 0.0 mm 835 W/m2
12:17 25.9 °C 19.1 °C 1019.0 hPa East 4.7 km/h 14.5 km/h 66% 0.0 mm 840 W/m2
12:22 26 °C 19.4 °C 1019.0 hPa East 6.4 km/h 6.4 km/h 67% 0.0 mm 833 W/m2
12:27 26.1 °C 19.5 °C 1018.6 hPa East 4.7 km/h 14.5 km/h 67% 0.0 mm 846 W/m2
12:32 26.1 °C 19.2 °C 1018.6 hPa ENE 1.4 km/h 12.9 km/h 66% 0.0 mm 853 W/m2
12:37 26.2 °C 19.6 °C 1018.6 hPa East 1.4 km/h 6.4 km/h 67% 0.0 mm 867 W/m2
12:42 26.3 °C 19.2 °C 1018.6 hPa East 4.7 km/h 12.9 km/h 65% 0.0 mm 872 W/m2
12:47 26.5 °C 19.4 °C 1018.6 hPa ESE 3.2 km/h 4.8 km/h 65% 0.0 mm 875 W/m2
12:52 26.6 °C 19 °C 1018.3 hPa North 3.2 km/h 9.7 km/h 63% 0.0 mm 882 W/m2
12:57 26.6 °C 19.2 °C 1018.3 hPa ESE 6.4 km/h 6.4 km/h 64% 0.0 mm 888 W/m2
13:02 26.7 °C 18.6 °C 1018.3 hPa ENE 7.9 km/h 8 km/h 61% 0.0 mm 891 W/m2
13:07 26.8 °C 18.6 °C 1018.3 hPa North 6.4 km/h 8 km/h 61% 0.0 mm 900 W/m2
13:12 26.7 °C 18 °C 1018.3 hPa SSE 1.4 km/h 20.9 km/h 59% 0.0 mm 909 W/m2
13:17 26.7 °C 18 °C 1018.3 hPa NW 1.4 km/h 8 km/h 59% 0.0 mm 928 W/m2
13:22 26.8 °C 18.4 °C 1018.0 hPa ENE 1.4 km/h 17.7 km/h 60% 0.0 mm 926 W/m2
13:27 27.2 °C 18.5 °C 1018.0 hPa NW 1.4 km/h 6.4 km/h 59% 0.0 mm 925 W/m2
13:32 27.5 °C 19.3 °C 1018.0 hPa SE 3.2 km/h 12.9 km/h 61% 0.0 mm 904 W/m2
13:37 27.3 °C 17.8 °C 1018.0 hPa East 1.4 km/h 6.4 km/h 56% 0.0 mm 895 W/m2
13:42 27.3 °C 18.6 °C 1017.6 hPa South 7.9 km/h 12.9 km/h 59% 0.0 mm 891 W/m2
13:47 27.3 °C 18.6 °C 1017.6 hPa ENE 9.7 km/h 9.7 km/h 59% 0.0 mm 888 W/m2
13:52 27.3 °C 19.1 °C 1017.6 hPa ENE 4.7 km/h 6.4 km/h 61% 0.0 mm 896 W/m2
13:57 27.3 °C 18.6 °C 1017.6 hPa NE 3.2 km/h 8 km/h 59% 0.0 mm 898 W/m2
14:02 27.3 °C 18.9 °C 1017.6 hPa ESE 6.4 km/h 12.9 km/h 60% 0.0 mm 932 W/m2
14:07 27.3 °C 19.4 °C 1017.6 hPa North 4.7 km/h 6.4 km/h 62% 0.0 mm 178 W/m2
14:12 27.4 °C 18.7 °C 1017.6 hPa South 3.2 km/h 12.9 km/h 59% 0.0 mm 958 W/m2
14:17 27.4 °C 18.4 °C 1017.3 hPa SE 1.4 km/h 9.7 km/h 58% 0.0 mm 970 W/m2
14:22 27.8 °C 18.8 °C 1017.3 hPa East 4.7 km/h 12.9 km/h 58% 0.0 mm 935 W/m2
14:27 27.9 °C 18.9 °C 1017.3 hPa SSW 3.2 km/h 14.5 km/h 58% 0.0 mm 919 W/m2
14:32 27.9 °C 17.7 °C 1017.3 hPa ESE 3.2 km/h 4.8 km/h 54% 0.0 mm 925 W/m2
14:37 27.8 °C 18.8 °C 1016.9 hPa North 1.4 km/h 4.8 km/h 58% 0.0 mm 165 W/m2
14:42 27.7 °C 18.1 °C 1016.9 hPa WNW 1.4 km/h 12.9 km/h 56% 0.0 mm 986 W/m2
14:52 27.3 °C 18 °C 1016.9 hPa WSW 1.4 km/h 4.8 km/h 57% 0.0 mm 213 W/m2
14:57 27.3 °C 18.9 °C 1016.9 hPa ENE 4.7 km/h 6.4 km/h 60% 0.0 mm 1060 W/m2
15:02 27.4 °C 18.9 °C 1016.9 hPa ENE 1.4 km/h 4.8 km/h 60% 0.0 mm 1074 W/m2
15:07 27.5 °C 18.5 °C 1016.9 hPa East 1.4 km/h 4.8 km/h 58% 0.0 mm 638 W/m2
15:12 27.3 °C 18.6 °C 1016.9 hPa SW 7.9 km/h 9.7 km/h 59% 0.0 mm 352 W/m2
15:17 27.3 °C 19.1 °C 1016.9 hPa West 3.2 km/h 8 km/h 61% 0.0 mm 352 W/m2
15:22 27.4 °C 18.1 °C 1016.9 hPa NE 1.4 km/h 9.7 km/h 57% 0.0 mm 343 W/m2
15:27 27.3 °C 18.3 °C 1016.6 hPa NE 1.4 km/h 9.7 km/h 58% 0.0 mm 239 W/m2
15:33 27.3 °C 18.9 °C 1016.6 hPa ESE 11.1 km/h 11.3 km/h 60% 0.0 mm 295 W/m2
15:38 27.2 °C 18.2 °C 1016.6 hPa East 13 km/h 19.3 km/h 58% 0.0 mm 292 W/m2
15:43 27.3 °C 18.6 °C 1016.3 hPa SE 1.4 km/h 6.4 km/h 59% 0.0 mm 1018 W/m2
15:48 27.8 °C 18.5 °C 1016.6 hPa South 1.4 km/h 19.3 km/h 57% 0.0 mm 993 W/m2
15:53 27.4 °C 17.8 °C 1016.6 hPa NW 7.9 km/h 14.5 km/h 56% 0.0 mm 279 W/m2
15:58 27.1 °C 18.1 °C 1016.3 hPa NW 1.4 km/h 8 km/h 58% 0.0 mm 343 W/m2
16:03 27.3 °C 19.1 °C 1016.3 hPa WNW 13 km/h 12.9 km/h 61% 0.0 mm 900 W/m2
16:08 27.4 °C 18.7 °C 1016.3 hPa WSW 3.2 km/h 17.7 km/h 59% 0.0 mm 705 W/m2
16:13 27.2 °C 18.8 °C 1016.3 hPa NW 7.9 km/h 12.9 km/h 60% 0.0 mm 851 W/m2
16:18 27.1 °C 18.7 °C 1016.6 hPa West 9.7 km/h 17.7 km/h 60% 0.0 mm 949 W/m2
16:23 27.3 °C 19.1 °C 1016.6 hPa WNW 6.4 km/h 12.9 km/h 61% 0.0 mm 972 W/m2
16:28 27.3 °C 18 °C 1016.6 hPa WNW 3.2 km/h 11.3 km/h 57% 0.0 mm 895 W/m2
16:33 27.4 °C 18.4 °C 1016.6 hPa ESE 3.2 km/h 6.4 km/h 58% 0.0 mm 870 W/m2
16:38 27.7 °C 18.7 °C 1016.6 hPa WNW 4.7 km/h 6.4 km/h 58% 0.0 mm 874 W/m2
16:43 27.9 °C 18.9 °C 1016.3 hPa West 4.7 km/h 4.8 km/h 58% 0.0 mm 884 W/m2
16:48 28.2 °C 18.6 °C 1016.3 hPa Calm   6.4 km/h 56% 0.0 mm 376 W/m2
16:53 28.1 °C 17.9 °C 1016.3 hPa WNW 3.2 km/h 4.8 km/h 54% 0.0 mm 264 W/m2
16:58 27.7 °C 18.1 °C 1016.3 hPa SSE 3.2 km/h 8 km/h 56% 0.0 mm 176 W/m2
17:03 27.1 °C 18.4 °C 1016.3 hPa WNW 4.7 km/h 11.3 km/h 59% 0.0 mm 216 W/m2
17:08 26.6 °C 18.5 °C 1016.3 hPa NNW 4.7 km/h 14.5 km/h 61% 0.0 mm 183 W/m2
17:13 26.2 °C 18.6 °C 1016.3 hPa ENE 1.4 km/h 9.7 km/h 63% 0.0 mm 151 W/m2
17:18 25.8 °C 18.2 °C 1016.3 hPa WNW 1.4 km/h 14.5 km/h 63% 0.0 mm 128 W/m2
17:23 25.7 °C 18.4 °C 1016.3 hPa WSW 1.4 km/h 9.7 km/h 64% 0.0 mm 127 W/m2
17:28 25.4 °C 18.6 °C 1016.3 hPa SW 3.2 km/h 6.4 km/h 66% 0.0 mm 167 W/m2
17:33 25.3 °C 18.7 °C 1016.3 hPa WNW 3.2 km/h 9.7 km/h 67% 0.0 mm 334 W/m2
17:38 25.5 °C 18.9 °C 1015.9 hPa NNE 4.7 km/h 6.4 km/h 67% 0.0 mm 635 W/m2
17:43 25.6 °C 17.5 °C 1016.3 hPa East 9.7 km/h 11.3 km/h 61% 0.0 mm 199 W/m2
17:48 25.4 °C 17.8 °C 1016.3 hPa NNE 1.4 km/h 4.8 km/h 63% 0.0 mm 123 W/m2
17:53 25.3 °C 18 °C 1016.9 hPa West 14.3 km/h 14.5 km/h 64% 0.0 mm 14 W/m2
17:58 23.9 °C 16.7 °C 1017.3 hPa NW 17.7 km/h 22.5 km/h 64% 0.0 mm 12 W/m2
18:03 22.3 °C 16.1 °C 1017.6 hPa WNW 24.1 km/h 24.1 km/h 68% 0.0 mm 23 W/m2
18:08 20.6 °C 14.7 °C 1017.3 hPa NW 16.3 km/h 32.2 km/h 69% 0.0 mm 47 W/m2
18:13 19.5 °C 15.2 °C 1017.3 hPa West 9.7 km/h 27.4 km/h 76% 0.0 mm 53 W/m2
18:18 19.2 °C 15.1 °C 1017.6 hPa WSW 11.1 km/h 32.2 km/h 77% 0.0 mm 42 W/m2
18:23 19.1 °C 15.4 °C 1017.3 hPa West 3.2 km/h 22.5 km/h 79% 0.0 mm 28 W/m2
18:28 18.8 °C 15.7 °C 1017.3 hPa West 16.3 km/h 27.4 km/h 82% 0.0 mm 37 W/m2
18:33 18.5 °C 15.9 °C 1017.3 hPa WNW 11.1 km/h 22.5 km/h 85% 1.0 mm 28 W/m2
18:38 18.2 °C 16.2 °C 1017.3 hPa WNW 11.1 km/h 27.4 km/h 88% 1.5 mm 23 W/m2
18:43 18.1 °C 16.3 °C 1017.3 hPa West 9.7 km/h 19.3 km/h 89% 1.5 mm 21 W/m2
18:48 18.1 °C 16.3 °C 1017.6 hPa West 9.7 km/h 16.1 km/h 89% 1.5 mm 32 W/m2
18:53 18.1 °C 16.3 °C 1017.3 hPa West 11.1 km/h 17.7 km/h 89% 1.5 mm 44 W/m2
18:58 18.1 °C 16.3 °C 1017.6 hPa West 4.7 km/h 11.3 km/h 89% 1.5 mm 44 W/m2
19:03 18.2 °C 16.5 °C 1017.6 hPa West 3.2 km/h 6.4 km/h 90% 1.5 mm 40 W/m2
19:08 18.2 °C 16.5 °C 1018.0 hPa WSW 1.4 km/h 3.2 km/h 90% 1.5 mm 40 W/m2
19:13 18.3 °C 16.6 °C 1018.0 hPa WNW 1.4 km/h 3.2 km/h 90% 1.5 mm 44 W/m2
19:18 18.3 °C 16.8 °C 1018.0 hPa West 3.2 km/h 4.8 km/h 91% 1.5 mm 49 W/m2
19:23 18.3 °C 16.8 °C 1018.0 hPa West 1.4 km/h 4.8 km/h 91% 1.5 mm 49 W/m2
19:28 18.3 °C 16.8 °C 1018.0 hPa Calm   3.2 km/h 91% 1.5 mm 44 W/m2
19:33 18.3 °C 17 °C 1018.3 hPa WSW 1.4 km/h 3.2 km/h 92% 0.5 mm 32 W/m2
19:38 18.4 °C 17.1 °C 1018.3 hPa Calm   1.6 km/h 92% 0.2 mm 33 W/m2
19:43 18.4 °C 17.1 °C 1018.3 hPa Calm     92% 0.0 mm 37 W/m2
19:48 18.4 °C 17.2 °C 1018.3 hPa Calm   1.6 km/h 93% 0.0 mm 39 W/m2
19:53 18.3 °C 17.1 °C 1018.6 hPa Calm     93% 0.0 mm 42 W/m2
19:58 18.3 °C 17.1 °C 1018.6 hPa Calm     93% 0.0 mm 42 W/m2
20:03 18.3 °C 17.1 °C 1018.6 hPa Calm     93% 0.0 mm 40 W/m2
20:08 18.3 °C 17.1 °C 1018.6 hPa Calm     93% 0.0 mm 37 W/m2
20:13 18.2 °C 17 °C 1018.6 hPa Calm   1.6 km/h 93% 0.0 mm 35 W/m2
20:18 18.3 °C 17.1 °C 1018.6 hPa Calm     93% 0.0 mm 30 W/m2
20:23 18.3 °C 17.1 °C 1018.6 hPa Calm     93% 0.0 mm 30 W/m2
20:28 18.3 °C 17.3 °C 1018.3 hPa Calm     94% 0.0 mm 30 W/m2
20:33 18.3 °C 17.1 °C 1018.3 hPa Calm     93% 0.0 mm 30 W/m2
20:38 18.2 °C 17 °C 1018.3 hPa ENE 1.4 km/h 1.6 km/h 93% 0.0 mm 25 W/m2
20:43 18.2 °C 16.9 °C 1018.3 hPa ESE 1.4 km/h 3.2 km/h 92% 0.0 mm 21 W/m2
20:48 18.2 °C 16.9 °C 1018.3 hPa ENE 1.4 km/h 8 km/h 92% 0.0 mm 19 W/m2
20:53 18.1 °C 16.8 °C 1018.3 hPa SE 1.4 km/h 1.6 km/h 92% 0.0 mm 18 W/m2
20:58 18.1 °C 16.8 °C 1018.6 hPa SE 1.4 km/h 8 km/h 92% 0.0 mm 16 W/m2
21:03 18 °C 16.7 °C 1018.3 hPa Calm     92% 0.0 mm 14 W/m2
21:08 17.9 °C 16.6 °C 1018.0 hPa Calm   1.6 km/h 92% 0.0 mm 12 W/m2
21:13 17.8 °C 16.5 °C 1018.0 hPa SE 1.4 km/h 3.2 km/h 92% 0.0 mm 11 W/m2
21:18 17.7 °C 16.4 °C 1018.0 hPa Calm   1.6 km/h 92% 0.0 mm 9 W/m2
21:23 17.7 °C 16.4 °C 1018.0 hPa Calm   1.6 km/h 92% 0.0 mm 5 W/m2
21:28 17.5 °C 16.2 °C 1018.0 hPa Calm     92% 0.0 mm 0 W/m2
21:34 17.4 °C 16.1 °C 1018.0 hPa Calm   1.6 km/h 92% 0.0 mm 0 W/m2
21:39 17.3 °C 16.2 °C 1018.0 hPa Calm     93% 0.0 mm 0 W/m2
21:44 17.1 °C 15.8 °C 1018.0 hPa Calm     92% 0.0 mm 0 W/m2
21:49 16.9 °C 15.8 °C 1018.3 hPa Calm     93% 0.0 mm 0 W/m2
21:54 16.8 °C 15.7 °C 1018.3 hPa SSE 1.4 km/h 3.2 km/h 93% 0.0 mm 0 W/m2
21:59 16.7 °C 15.6 °C 1018.3 hPa SSE 1.4 km/h 1.6 km/h 93% 0.0 mm 0 W/m2
22:04 16.6 °C 15.5 °C 1018.6 hPa Calm     93% 0.0 mm 0 W/m2
22:09 16.6 °C 15.6 °C 1018.6 hPa Calm     94% 0.0 mm 0 W/m2
22:14 16.6 °C 15.6 °C 1018.3 hPa Calm     94% 0.0 mm 0 W/m2
22:19 16.4 °C 15.4 °C 1018.6 hPa Calm   1.6 km/h 94% 0.0 mm 0 W/m2
22:24 16.4 °C 15.4 °C 1018.6 hPa Calm     94% 0.0 mm 0 W/m2
22:29 16.3 °C 15.3 °C 1018.6 hPa Calm   1.6 km/h 94% 0.0 mm 0 W/m2
22:34 16.3 °C 15.3 °C 1018.6 hPa Calm     94% 0.0 mm 0 W/m2
22:39 16.3 °C 15.3 °C 1018.6 hPa Calm     94% 0.0 mm 0 W/m2
22:44 16.3 °C 15.5 °C 1018.6 hPa Calm     95% 0.0 mm 0 W/m2
22:49 16.3 °C 15.5 °C 1018.6 hPa Calm   1.6 km/h 95% 0.0 mm 0 W/m2
22:54 16.3 °C 15.5 °C 1018.6 hPa Calm   1.6 km/h 95% 0.0 mm 0 W/m2
22:59 16.3 °C 15.5 °C 1018.6 hPa West 3.2 km/h 3.2 km/h 95% 0.0 mm 0 W/m2
23:04 16.3 °C 15.5 °C 1018.6 hPa West 3.2 km/h 3.2 km/h 95% 0.0 mm 0 W/m2
23:09 16.4 °C 15.6 °C 1018.6 hPa WNW 1.4 km/h 4.8 km/h 95% 0.0 mm 0 W/m2
23:14 16.6 °C 15.8 °C 1018.3 hPa WNW 1.4 km/h 4.8 km/h 95% 0.0 mm 0 W/m2
23:19 16.6 °C 15.8 °C 1018.6 hPa WNW 1.4 km/h 3.2 km/h 95% 0.0 mm 0 W/m2
23:24 16.6 °C 15.8 °C 1018.6 hPa Calm   1.6 km/h 95% 0.0 mm 0 W/m2
23:29 16.5 °C 15.7 °C 1018.6 hPa Calm     95% 0.0 mm 0 W/m2
23:34 16.5 °C 15.7 °C 1018.3 hPa Calm     95% 0.0 mm 0 W/m2
23:39 16.5 °C 15.7 °C 1018.6 hPa Calm     95% 0.0 mm 0 W/m2
23:44 16.5 °C 15.7 °C 1018.6 hPa Calm   3.2 km/h 95% 0.0 mm 0 W/m2
23:49 16.5 °C 15.7 °C 1018.6 hPa WSW 1.4 km/h 3.2 km/h 95% 0.0 mm 0 W/m2
23:54 16.7 °C 16.1 °C 1018.6 hPa WSW 1.4 km/h 6.4 km/h 96% 0.0 mm 0 W/m2
23:59 16.8 °C 16.2 °C 1018.6 hPa WNW 3.2 km/h 4.8 km/h 96% 0.0 mm 0 W/m2
Juneau County Weather
Compliments of Weather Underground - 4 mb